createdAt,value
2018-11-27T00:02:35.702Z,10.40
2018-11-27T00:06:38.785Z,10.67
2018-11-27T00:10:41.665Z,12.47
2018-11-27T00:14:44.545Z,12.07
2018-11-27T00:18:47.405Z,13.90
2018-11-27T00:22:50.285Z,12.20
2018-11-27T00:26:53.151Z,11.83
2018-11-27T00:30:56.025Z,10.50
2018-11-27T00:34:58.901Z,12.77
2018-11-27T00:39:02.011Z,10.10
2018-11-27T00:43:04.949Z,10.30
2018-11-27T00:47:07.820Z,10.97
2018-11-27T00:51:10.801Z,11.80
2018-11-27T00:55:14.224Z,11.23
2018-11-27T00:59:17.322Z,11.13
2018-11-27T01:03:20.191Z,11.33
2018-11-27T01:07:23.045Z,10.90
2018-11-27T01:11:25.915Z,12.77
2018-11-27T01:15:28.773Z,12.07
2018-11-27T01:19:31.637Z,12.07
2018-11-27T01:23:34.502Z,15.10
2018-11-27T01:27:37.729Z,13.20
2018-11-27T01:31:40.798Z,13.03
2018-11-27T01:35:43.670Z,15.13
2018-11-27T01:39:46.532Z,11.83
2018-11-27T01:43:49.406Z,12.30
2018-11-27T01:47:52.360Z,13.63
2018-11-27T01:51:55.446Z,11.60
2018-11-27T01:55:58.305Z,13.63
2018-11-27T02:00:01.410Z,12.03
2018-11-27T02:04:04.543Z,12.40
2018-11-27T02:08:07.624Z,13.07
2018-11-27T02:12:10.482Z,10.93
2018-11-27T02:16:13.353Z,15.90
2018-11-27T02:20:16.423Z,11.90
2018-11-27T02:24:19.289Z,10.93
2018-11-27T02:28:22.145Z,10.30
2018-11-27T02:32:25.227Z,11.30
2018-11-27T02:36:28.084Z,11.07
2018-11-27T02:40:30.959Z,11.13
2018-11-27T02:44:33.813Z,10.20
2018-11-27T02:48:36.673Z,13.53
2018-11-27T02:52:39.741Z,11.63
2018-11-27T02:56:42.621Z,9.93
2018-11-27T03:00:46.474Z,9.80
2018-11-27T03:04:49.346Z,8.93
2018-11-27T03:08:52.198Z,10.50
2018-11-27T03:12:55.286Z,13.40
2018-11-27T03:16:58.138Z,12.33
2018-11-27T03:21:01.009Z,12.37
2018-11-27T03:25:04.274Z,12.70
2018-11-27T03:29:07.351Z,9.63
2018-11-27T03:33:10.214Z,14.83
2018-11-27T03:37:13.084Z,11.20
2018-11-27T03:41:16.146Z,14.53
2018-11-27T03:45:19.633Z,16.70
2018-11-27T03:49:22.501Z,11.50
2018-11-27T03:53:25.365Z,15.03
2018-11-27T03:57:28.225Z,14.70
2018-11-27T04:01:31.113Z,13.50
2018-11-27T04:05:33.973Z,10.97
2018-11-27T04:09:37.042Z,12.30
2018-11-27T04:13:39.962Z,13.37
2018-11-27T04:17:42.846Z,15.27
2018-11-27T04:21:45.911Z,11.43
2018-11-27T04:25:48.805Z,13.77
2018-11-27T04:29:51.878Z,14.30
2018-11-27T04:33:54.950Z,15.20
2018-11-27T04:37:57.811Z,14.03
2018-11-27T04:42:00.886Z,14.57
2018-11-27T04:46:03.742Z,15.53
2018-11-27T04:50:07.737Z,13.00
2018-11-27T04:54:10.811Z,14.20
2018-11-27T04:58:13.682Z,17.67
2018-11-27T05:02:16.557Z,14.23
2018-11-27T05:06:19.425Z,16.07
2018-11-27T05:10:23.475Z,13.50
2018-11-27T05:14:26.549Z,21.23
2018-11-27T05:18:29.409Z,14.10
2018-11-27T05:22:32.284Z,16.57
2018-11-27T05:26:35.350Z,18.20
2018-11-27T05:30:38.426Z,14.80
2018-11-27T05:34:41.277Z,16.50
2018-11-27T05:38:44.161Z,16.17
2018-11-27T05:42:47.453Z,15.47
2018-11-27T05:46:50.342Z,14.40
2018-11-27T05:50:53.399Z,17.37
2018-11-27T05:54:56.469Z,18.70
2018-11-27T05:58:59.325Z,21.07
2018-11-27T06:03:02.951Z,15.30
2018-11-27T06:07:05.800Z,19.10
2018-11-27T06:11:08.665Z,15.23
2018-11-27T06:15:14.128Z,15.87
2018-11-27T06:19:16.993Z,18.00
2018-11-27T06:23:19.853Z,17.23
2018-11-27T06:27:22.934Z,15.47
2018-11-27T06:31:25.814Z,18.07
2018-11-27T06:35:29.327Z,15.97
2018-11-27T06:39:32.313Z,22.50
2018-11-27T06:43:35.185Z,13.83
2018-11-27T06:47:38.076Z,14.80
2018-11-27T06:51:41.165Z,19.93
2018-11-27T06:55:44.021Z,17.00
2018-11-27T06:59:46.893Z,20.83
2018-11-27T07:03:49.778Z,20.63
2018-11-27T07:07:52.725Z,16.27
2018-11-27T07:11:55.581Z,18.47
2018-11-27T07:15:58.465Z,17.10
2018-11-27T07:20:01.333Z,20.83
2018-11-27T07:24:04.442Z,20.43
2018-11-27T07:28:07.318Z,22.37
2018-11-27T07:32:10.413Z,22.17
2018-11-27T07:36:13.264Z,18.50
2018-11-27T07:40:16.613Z,18.57
2018-11-27T07:44:19.468Z,22.30
2018-11-27T07:48:22.429Z,22.07
2018-11-27T07:52:25.288Z,20.67
2018-11-27T07:56:28.165Z,19.90
2018-11-27T08:00:31.021Z,20.73
2018-11-27T08:04:34.110Z,18.10
2018-11-27T08:08:36.973Z,23.87
2018-11-27T08:12:40.059Z,20.30
2018-11-27T08:16:42.913Z,20.93
2018-11-27T08:20:45.797Z,21.93
2018-11-27T08:24:48.658Z,22.70
2018-11-27T08:28:51.535Z,27.20
2018-11-27T08:32:55.350Z,22.03
2018-11-27T08:36:58.217Z,23.13
2018-11-27T08:41:01.310Z,19.93
2018-11-27T08:45:04.617Z,19.97
2018-11-27T08:49:07.693Z,22.13
2018-11-27T08:53:10.561Z,21.47
2018-11-27T08:57:13.441Z,20.40
2018-11-27T09:01:16.547Z,20.70
2018-11-27T09:05:19.520Z,24.90
2018-11-27T09:09:22.793Z,20.70
2018-11-27T09:13:25.681Z,22.60
2018-11-27T09:17:28.789Z,23.90
2018-11-27T09:21:31.649Z,19.90
2018-11-27T09:25:34.617Z,21.93
2018-11-27T09:29:37.694Z,20.93
2018-11-27T09:33:40.581Z,23.17
2018-11-27T09:37:43.445Z,26.60
2018-11-27T09:41:46.549Z,26.33
2018-11-27T09:45:49.652Z,23.93
2018-11-27T09:49:52.602Z,28.03
2018-11-27T09:53:55.461Z,26.93
2018-11-27T09:57:59.391Z,24.37
2018-11-27T10:02:01.436Z,23.30
2018-11-27T10:06:04.325Z,25.10
2018-11-27T10:10:09.544Z,21.57
2018-11-27T10:14:12.445Z,23.87
2018-11-27T10:18:15.509Z,20.83
2018-11-27T10:22:18.590Z,22.00
2018-11-27T10:26:21.449Z,25.07
2018-11-27T10:30:25.634Z,22.57
2018-11-27T10:34:28.487Z,22.30
2018-11-27T10:38:31.353Z,24.90
2018-11-27T10:42:34.431Z,25.17
2018-11-27T10:46:37.337Z,27.23
2018-11-27T10:50:40.205Z,22.77
2018-11-27T10:54:43.289Z,22.63
2018-11-27T10:58:46.149Z,25.60
2018-11-27T11:02:54.527Z,22.27
2018-11-27T11:06:57.401Z,25.90
2018-11-27T11:11:00.486Z,29.33
2018-11-27T11:15:03.343Z,24.33
2018-11-27T11:19:06.428Z,21.00
2018-11-27T11:23:09.285Z,22.70
2018-11-27T11:27:12.160Z,26.53
2018-11-27T11:31:15.024Z,25.20
2018-11-27T11:35:17.901Z,23.67
2018-11-27T11:39:20.758Z,23.10
2018-11-27T11:43:23.626Z,21.50
2018-11-27T11:47:26.489Z,24.40
2018-11-27T11:51:29.398Z,26.47
2018-11-27T11:55:32.473Z,21.87
2018-11-27T11:59:35.339Z,24.13
2018-11-27T12:03:38.201Z,22.27
2018-11-27T12:07:41.084Z,24.57
2018-11-27T12:11:43.945Z,24.17
2018-11-27T12:15:46.817Z,24.93
2018-11-27T12:19:49.681Z,27.70
2018-11-27T12:23:52.561Z,23.97
2018-11-27T12:27:55.638Z,27.67
2018-11-27T12:31:58.513Z,26.73
2018-11-27T12:36:02.442Z,24.93
2018-11-27T12:40:08.482Z,25.63
2018-11-27T12:44:11.341Z,24.10
2018-11-27T12:48:14.227Z,25.43
2018-11-27T12:52:17.085Z,28.53
2018-11-27T12:56:19.952Z,28.33
2018-11-27T13:00:23.786Z,26.27
2018-11-27T13:04:26.872Z,24.17
2018-11-27T13:08:29.966Z,27.03
2018-11-27T13:12:32.837Z,25.40
2018-11-27T13:16:35.701Z,26.73
2018-11-27T13:20:38.945Z,25.47
2018-11-27T13:24:41.805Z,25.23
2018-11-27T13:28:44.890Z,31.03
2018-11-27T13:32:48.741Z,27.23
2018-11-27T13:36:51.639Z,24.20
2018-11-27T13:40:54.721Z,22.33
2018-11-27T13:44:57.608Z,29.43
2018-11-27T13:49:00.682Z,27.40
2018-11-27T13:53:03.780Z,27.60
2018-11-27T13:57:06.655Z,22.33
2018-11-27T14:01:09.743Z,27.40
2018-11-27T14:05:14.037Z,26.90
2018-11-27T14:09:16.937Z,24.47
2018-11-27T14:13:19.810Z,30.47
2018-11-27T14:17:22.685Z,32.67
2018-11-27T14:21:25.570Z,32.93
2018-11-27T14:25:28.653Z,26.97
2018-11-27T14:29:31.506Z,25.50
2018-11-27T14:33:34.381Z,25.30
2018-11-27T14:37:37.461Z,24.03
2018-11-27T14:41:40.341Z,25.50
2018-11-27T14:45:43.197Z,28.77
2018-11-27T14:49:46.282Z,29.07
2018-11-27T14:53:49.161Z,26.23
2018-11-27T14:57:52.054Z,28.70
2018-11-27T15:01:54.910Z,25.57
2018-11-27T15:05:57.778Z,28.33
2018-11-27T15:10:00.661Z,25.27
2018-11-27T15:14:03.546Z,27.10
2018-11-27T15:18:06.590Z,30.10
2018-11-27T15:22:09.678Z,25.80
2018-11-27T15:26:12.533Z,27.80
2018-11-27T15:30:15.971Z,30.40
2018-11-27T15:34:18.820Z,23.87
2018-11-27T15:38:21.697Z,24.77
2018-11-27T15:42:24.561Z,30.73
2018-11-27T15:46:27.442Z,31.03
2018-11-27T15:50:30.306Z,29.60
2018-11-27T15:54:33.188Z,37.93
2018-11-27T15:58:36.062Z,30.33
2018-11-27T16:02:38.961Z,28.23
2018-11-27T16:06:42.034Z,31.63
2018-11-27T16:10:44.932Z,27.23
2018-11-27T16:14:48.026Z,30.60
2018-11-27T16:18:50.911Z,31.70
2018-11-27T16:22:53.773Z,32.00
2018-11-27T16:26:56.651Z,26.83
2018-11-27T16:30:59.529Z,33.40
2018-11-27T16:35:02.412Z,26.47
2018-11-27T16:39:08.230Z,31.17
2018-11-27T16:43:11.320Z,30.30
2018-11-27T16:47:14.178Z,31.40
2018-11-27T16:51:17.078Z,30.37
2018-11-27T16:55:21.193Z,26.13
2018-11-27T16:59:24.274Z,31.43
2018-11-27T17:03:27.397Z,31.83
2018-11-27T17:07:30.281Z,31.10
2018-11-27T17:11:33.157Z,33.50
2018-11-27T17:15:36.037Z,29.67
2018-11-27T17:19:38.905Z,31.40
2018-11-27T17:23:41.778Z,33.63
2018-11-27T17:27:44.718Z,30.57
2018-11-27T17:31:47.807Z,34.27
2018-11-27T17:35:50.698Z,34.53
2018-11-27T17:39:53.577Z,38.97
2018-11-27T17:43:56.441Z,32.23
2018-11-27T17:47:59.348Z,33.57
2018-11-27T17:52:02.261Z,37.37
2018-11-27T17:56:05.145Z,30.30
2018-11-27T18:00:11.857Z,32.47
2018-11-27T18:04:15.042Z,30.67
2018-11-27T18:08:17.901Z,28.17
2018-11-27T18:12:20.806Z,32.40
2018-11-27T18:16:23.677Z,30.07
2018-11-27T18:20:26.561Z,33.40
2018-11-27T18:24:29.632Z,38.00
2018-11-27T18:28:32.505Z,35.57
2018-11-27T18:32:35.397Z,34.17
2018-11-27T18:36:38.275Z,34.13
2018-11-27T18:40:41.145Z,36.60
2018-11-27T18:44:44.034Z,37.47
2018-11-27T18:48:46.894Z,30.30
2018-11-27T18:52:49.773Z,33.30
2018-11-27T18:56:52.846Z,34.30
2018-11-27T19:00:55.835Z,37.70
2018-11-27T19:04:58.685Z,35.80
2018-11-27T19:09:01.558Z,37.00
2018-11-27T19:13:05.117Z,33.40
2018-11-27T19:17:08.009Z,42.20
2018-11-27T19:21:10.877Z,41.20
2018-11-27T19:25:15.140Z,36.23
2018-11-27T19:29:18.205Z,39.33
2018-11-27T19:33:21.099Z,38.20
2018-11-27T19:37:23.961Z,40.90
2018-11-27T19:41:26.854Z,37.40
2018-11-27T19:45:29.793Z,39.50
2018-11-27T19:49:32.683Z,37.07
2018-11-27T19:53:37.277Z,35.77
2018-11-27T19:57:40.381Z,37.80
2018-11-27T20:01:43.251Z,41.17
2018-11-27T20:05:46.121Z,39.03
2018-11-27T20:09:48.985Z,35.33
2018-11-27T20:13:51.891Z,41.43
2018-11-27T20:17:55.077Z,40.10
2018-11-27T20:21:58.026Z,41.60
2018-11-27T20:26:01.102Z,37.53
2018-11-27T20:30:05.253Z,34.40
2018-11-27T20:34:08.128Z,37.90
2018-11-27T20:38:11.098Z,39.47
2018-11-27T20:42:14.175Z,35.27
2018-11-27T20:46:17.061Z,38.10
2018-11-27T20:50:20.497Z,39.60
2018-11-27T20:54:23.370Z,40.20
2018-11-27T20:58:26.442Z,32.93
2018-11-27T21:02:29.365Z,35.50
2018-11-27T21:06:32.177Z,34.63
2018-11-27T21:10:35.190Z,35.87
2018-11-27T21:14:38.074Z,31.80
2018-11-27T21:18:40.949Z,35.50
2018-11-27T21:22:44.032Z,36.50
2018-11-27T21:26:46.913Z,37.80
2018-11-27T21:30:50.446Z,36.53
2018-11-27T21:34:53.309Z,30.67
2018-11-27T21:38:56.381Z,34.37
2018-11-27T21:42:59.261Z,35.03
2018-11-27T21:47:02.329Z,33.33
2018-11-27T21:51:05.418Z,34.03
2018-11-27T21:55:09.866Z,37.50
2018-11-27T21:59:12.749Z,36.50
2018-11-27T22:03:15.637Z,35.23
2018-11-27T22:07:18.525Z,40.63
2018-11-27T22:11:21.390Z,42.23
2018-11-27T22:15:30.181Z,39.07
2018-11-27T22:19:33.052Z,37.70
2018-11-27T22:23:36.130Z,41.73
2018-11-27T22:27:38.994Z,33.27
2018-11-27T22:31:41.861Z,39.10
2018-11-27T22:35:44.934Z,37.10
2018-11-27T22:39:47.814Z,40.27
2018-11-27T22:43:50.674Z,41.13
2018-11-27T22:47:53.630Z,35.93
2018-11-27T22:51:56.494Z,40.37
2018-11-27T22:56:00.320Z,35.43
2018-11-27T23:00:02.242Z,39.47
2018-11-27T23:04:06.089Z,40.07
2018-11-27T23:08:08.982Z,39.30
2018-11-27T23:12:12.071Z,35.73
2018-11-27T23:16:15.167Z,44.03
2018-11-27T23:20:18.289Z,35.70
2018-11-27T23:24:21.362Z,38.70
2018-11-27T23:28:24.236Z,36.17
2018-11-27T23:32:27.097Z,43.53
2018-11-27T23:36:30.190Z,36.63
2018-11-27T23:40:33.045Z,37.57
2018-11-27T23:44:35.921Z,38.30
2018-11-27T23:48:38.785Z,38.00
2018-11-27T23:52:41.757Z,37.13
2018-11-27T23:56:48.787Z,33.27
